Terminal Aerodrome Forecast
Issued by NWS

Home | Current Version | Previous Version | Graphics & Text | Print | Product List | Glossary Off
Versions: 1 2 3 4 5 6 7 8 9 10 11 12 13 14 15

000
FTUS43 KICT 252334
TAFCNU
TAF
KCNU 252334Z 2600/2624 19006KT P6SM SCT130
     FM261200 18007KT 6SM -SN OVC090
     FM261500 18009KT 6SM -RA OVC070
     FM261800 18011KT P6SM OVC050=

USA.gov is the U.S. government's official web portal to all federal, state and local government web resources and services.